Terminal Aerodrome Forecast
Issued by NWS

Home | Current Version | Previous Version | Text Only | Print | Product List | Glossary On
Versions: 1 2 3 4 5 6 7 8 9 10 11 12 13 14 15 16 17 18 19 20 21 22 23 24 25 26 27
000
FTUS41 KOKX 230000 AAA
TAFTEB
TAF AMD
KTEB 230015Z 2300/2324 36012G19KT 5SM -RA SCT015 BKN025 OVC030
      TEMPO 2300/2303 3SM RA BR BKN015
     FM230300 35015G23KT 4SM -RA BR BKN015
     FM230800 35016G24KT 6SM BR VCSH BKN010
     FM231400 33015G23KT 6SM BR VCSH BKN015
     FM231800 33013G21KT P6SM BKN020 OVC035=

USA.gov is the U.S. government's official web portal to all federal, state and local government web resources and services.